createdAt,value
2018-10-21T00:02:13.826Z,4.00
2018-10-21T00:04:41.758Z,4.60
2018-10-21T00:07:09.811Z,4.17
2018-10-21T00:09:37.798Z,4.53
2018-10-21T00:12:05.974Z,4.07
2018-10-21T00:14:34.046Z,4.47
2018-10-21T00:17:02.062Z,3.77
2018-10-21T00:19:30.307Z,4.10
2018-10-21T00:21:58.460Z,4.00
2018-10-21T00:24:26.538Z,3.63
2018-10-21T00:26:54.607Z,4.60
2018-10-21T00:29:22.583Z,4.30
2018-10-21T00:31:50.781Z,4.57
2018-10-21T00:34:18.788Z,3.57
2018-10-21T00:36:47.087Z,4.57
2018-10-21T00:39:15.122Z,4.33
2018-10-21T00:41:43.534Z,4.67
2018-10-21T00:44:11.866Z,4.87
2018-10-21T00:46:39.834Z,4.50
2018-10-21T00:49:08.450Z,4.67
2018-10-21T00:51:37.163Z,4.80
2018-10-21T00:54:09.936Z,4.40
2018-10-21T00:56:38.174Z,4.53
2018-10-21T00:59:07.206Z,4.60
2018-10-21T01:01:35.223Z,5.13
2018-10-21T01:04:03.666Z,4.87
2018-10-21T01:06:32.032Z,5.67
2018-10-21T01:09:00.032Z,5.30
2018-10-21T01:11:28.063Z,4.87
2018-10-21T01:13:56.134Z,5.17
2018-10-21T01:16:24.202Z,5.20
2018-10-21T01:18:52.894Z,5.20
2018-10-21T01:21:20.891Z,5.33
2018-10-21T01:23:49.142Z,4.90
2018-10-21T01:26:17.180Z,5.17
2018-10-21T01:28:45.159Z,4.67
2018-10-21T01:31:13.254Z,5.17
2018-10-21T01:33:41.348Z,4.33
2018-10-21T01:36:09.498Z,4.50
2018-10-21T01:38:37.513Z,4.90
2018-10-21T01:41:05.889Z,5.03
2018-10-21T01:43:34.608Z,5.20
2018-10-21T01:46:03.355Z,5.13
2018-10-21T01:48:32.932Z,5.50
2018-10-21T01:51:01.691Z,5.20
2018-10-21T01:53:29.735Z,5.07
2018-10-21T01:55:57.762Z,5.63
2018-10-21T01:58:25.930Z,5.07
2018-10-21T02:00:54.194Z,5.57
2018-10-21T02:03:22.256Z,5.47
2018-10-21T02:05:50.222Z,6.70
2018-10-21T02:08:18.461Z,5.87
2018-10-21T02:10:46.519Z,5.23
2018-10-21T02:13:14.786Z,6.03
2018-10-21T02:15:42.776Z,4.70
2018-10-21T02:18:11.096Z,5.70
2018-10-21T02:20:39.078Z,5.73
2018-10-21T02:23:07.068Z,6.80
2018-10-21T02:25:35.175Z,5.90
2018-10-21T02:28:03.184Z,5.97
2018-10-21T02:30:31.667Z,5.37
2018-10-21T02:33:00.645Z,5.80
2018-10-21T02:35:28.634Z,5.83
2018-10-21T02:37:57.310Z,5.47
2018-10-21T02:41:38.513Z,5.37
2018-10-21T02:44:07.698Z,5.30
2018-10-21T02:46:36.177Z,6.10
2018-10-21T02:49:05.006Z,5.60
2018-10-21T02:51:33.040Z,5.17
2018-10-21T02:54:01.319Z,6.83
2018-10-21T02:56:29.391Z,5.63
2018-10-21T02:58:57.410Z,6.10
2018-10-21T03:01:25.794Z,6.00
2018-10-21T03:03:53.811Z,6.50
2018-10-21T03:06:21.882Z,6.17
2018-10-21T03:08:50.261Z,5.73
2018-10-21T03:11:18.426Z,6.23
2018-10-21T03:13:46.903Z,7.10
2018-10-21T03:16:14.999Z,6.23
2018-10-21T03:18:43.066Z,6.20
2018-10-21T03:21:11.198Z,6.53
2018-10-21T03:23:39.322Z,6.80
2018-10-21T03:26:07.782Z,6.70
2018-10-21T03:28:35.775Z,7.53
2018-10-21T03:31:04.026Z,7.17
2018-10-21T03:33:32.417Z,7.13
2018-10-21T03:36:00.785Z,6.57
2018-10-21T03:38:29.064Z,6.10
2018-10-21T03:40:57.221Z,7.40
2018-10-21T03:43:25.206Z,7.13
2018-10-21T03:45:53.694Z,6.53
2018-10-21T03:48:21.962Z,7.87
2018-10-21T03:50:50.028Z,7.90
2018-10-21T03:53:18.032Z,7.57
2018-10-21T03:55:46.161Z,6.67
2018-10-21T03:58:14.283Z,7.70
2018-10-21T04:00:42.223Z,7.10
2018-10-21T04:03:10.587Z,6.97
2018-10-21T04:05:38.862Z,7.00
2018-10-21T04:08:07.339Z,7.50
2018-10-21T04:10:35.342Z,7.57
2018-10-21T04:13:03.506Z,8.00
2018-10-21T04:15:31.531Z,7.40
2018-10-21T04:17:59.528Z,7.20
2018-10-21T04:20:27.746Z,7.60
2018-10-21T04:22:57.983Z,8.40
2018-10-21T04:25:27.033Z,8.60
2018-10-21T04:27:56.136Z,7.83
2018-10-21T04:30:25.312Z,8.43
2018-10-21T04:32:58.783Z,7.70
2018-10-21T04:35:26.854Z,7.50
2018-10-21T04:40:12.049Z,7.67
2018-10-21T04:42:40.046Z,7.00
2018-10-21T04:45:08.654Z,7.53
2018-10-21T04:47:36.776Z,7.77
2018-10-21T04:50:05.615Z,8.97
2018-10-21T04:52:34.153Z,7.50
2018-10-21T04:55:10.312Z,8.40
2018-10-21T04:57:39.844Z,7.13
2018-10-21T05:00:13.422Z,6.83
2018-10-21T05:02:41.502Z,7.40
2018-10-21T05:05:11.239Z,8.23
2018-10-21T05:07:39.928Z,7.90
2018-10-21T05:10:16.570Z,7.77
2018-10-21T05:12:44.638Z,8.33
2018-10-21T05:15:12.736Z,7.50
2018-10-21T05:17:40.782Z,6.83
2018-10-21T05:20:09.257Z,7.63
2018-10-21T05:22:37.296Z,6.93
2018-10-21T05:25:06.231Z,6.73
2018-10-21T05:27:34.495Z,7.60
2018-10-21T05:30:02.514Z,7.37
2018-10-21T05:32:30.538Z,6.90
2018-10-21T05:34:58.571Z,7.67
2018-10-21T05:37:26.580Z,7.40
2018-10-21T05:39:54.622Z,7.60
2018-10-21T05:42:22.954Z,7.40
2018-10-21T05:44:51.001Z,6.60
2018-10-21T05:47:19.884Z,7.23
2018-10-21T05:49:48.166Z,7.70
2018-10-21T05:54:51.683Z,7.42
2018-10-21T05:57:19.670Z,7.20
2018-10-21T05:59:47.822Z,7.93
2018-10-21T06:02:15.982Z,8.13
2018-10-21T06:04:43.966Z,7.13
2018-10-21T06:07:12.392Z,8.37
2018-10-21T06:09:40.538Z,8.27
2018-10-21T06:12:09.015Z,8.50
2018-10-21T06:14:37.075Z,7.33
2018-10-21T06:17:35.744Z,8.00
2018-10-21T06:20:08.034Z,7.47
2018-10-21T06:22:39.090Z,6.07
2018-10-21T06:25:07.463Z,6.40
2018-10-21T06:27:35.652Z,6.03
2018-10-21T06:30:03.979Z,6.60
2018-10-21T06:32:32.093Z,6.20
2018-10-21T06:35:00.229Z,6.13
2018-10-21T06:37:44.237Z,5.92
2018-10-21T06:40:12.870Z,5.15
2018-10-21T06:42:40.873Z,5.37
2018-10-21T06:45:10.088Z,6.27
2018-10-21T06:47:38.131Z,5.03
2018-10-21T06:50:06.794Z,5.30
2018-10-21T06:52:34.815Z,5.28
2018-10-21T06:55:02.816Z,4.90
2018-10-21T06:57:31.080Z,5.45
2018-10-21T06:59:59.090Z,5.60
2018-10-21T07:02:27.120Z,4.80
2018-10-21T07:04:55.211Z,4.83
2018-10-21T07:07:24.298Z,5.33
2018-10-21T07:09:52.358Z,4.95
2018-10-21T07:12:20.438Z,5.42
2018-10-21T07:14:48.701Z,5.55
2018-10-21T07:17:16.758Z,5.97
2018-10-21T07:19:44.823Z,5.67
2018-10-21T07:22:13.697Z,5.90
2018-10-21T07:24:41.703Z,5.67
2018-10-21T07:27:09.910Z,5.85
2018-10-21T07:29:37.904Z,6.20
2018-10-21T07:32:05.926Z,6.10
2018-10-21T07:34:34.137Z,6.15
2018-10-21T07:37:02.225Z,5.72
2018-10-21T07:39:30.270Z,6.42
2018-10-21T07:41:58.298Z,5.85
2018-10-21T07:44:26.355Z,5.30
2018-10-21T07:46:54.349Z,6.17
2018-10-21T07:49:22.562Z,5.90
2018-10-21T07:51:50.639Z,5.58
2018-10-21T07:54:18.646Z,5.60
2018-10-21T07:56:46.672Z,5.70
2018-10-21T07:59:14.988Z,5.97
2018-10-21T08:01:43.004Z,5.73
2018-10-21T08:04:11.603Z,6.10
2018-10-21T08:06:51.130Z,5.50
2018-10-21T08:09:20.024Z,5.58
2018-10-21T08:11:48.030Z,5.75
2018-10-21T08:14:16.176Z,5.37
2018-10-21T08:16:44.442Z,5.45
2018-10-21T08:19:12.446Z,5.67
2018-10-21T08:21:40.487Z,5.65
2018-10-21T08:24:08.558Z,5.62
2018-10-21T08:26:36.727Z,5.30
2018-10-21T08:29:05.007Z,6.35
2018-10-21T08:31:33.126Z,5.33
2018-10-21T08:34:01.200Z,5.90
2018-10-21T08:36:29.318Z,4.45
2018-10-21T08:38:57.478Z,5.30
2018-10-21T08:41:25.500Z,5.00
2018-10-21T08:43:53.655Z,5.85
2018-10-21T08:46:21.810Z,5.47
2018-10-21T08:48:49.759Z,5.22
2018-10-21T08:51:17.750Z,5.50
2018-10-21T08:53:46.137Z,4.58
2018-10-21T08:56:14.196Z,5.55
2018-10-21T08:58:42.198Z,5.20
2018-10-21T09:01:10.288Z,5.70
2018-10-21T09:03:38.431Z,4.15
2018-10-21T09:06:06.438Z,4.67
2018-10-21T09:08:34.751Z,5.42
2018-10-21T09:11:03.181Z,4.90
2018-10-21T09:13:31.315Z,5.58
2018-10-21T09:16:00.643Z,4.40
2018-10-21T09:18:28.712Z,4.35
2018-10-21T09:20:56.785Z,4.50
2018-10-21T09:23:25.111Z,5.08
2018-10-21T09:25:53.126Z,4.80
2018-10-21T09:28:21.173Z,4.78
2018-10-21T09:30:49.262Z,4.45
2018-10-21T09:33:17.280Z,4.12
2018-10-21T09:35:45.311Z,4.28
2018-10-21T09:38:13.363Z,3.50
2018-10-21T09:40:41.418Z,3.62
2018-10-21T09:43:09.470Z,3.90
2018-10-21T09:45:37.590Z,3.02
2018-10-21T09:48:06.043Z,2.35
2018-10-21T09:50:34.053Z,3.02
2018-10-21T09:53:02.603Z,3.30
2018-10-21T09:55:30.586Z,3.20
2018-10-21T09:57:58.818Z,2.72
2018-10-21T10:00:32.779Z,3.35
2018-10-21T10:03:07.062Z,2.77
2018-10-21T10:05:35.088Z,2.47
2018-10-21T10:08:03.206Z,2.30
2018-10-21T10:10:31.233Z,2.80
2018-10-21T10:12:59.808Z,2.60
2018-10-21T10:15:27.823Z,3.17
2018-10-21T10:17:55.869Z,2.70
2018-10-21T10:20:23.887Z,2.22
2018-10-21T10:22:52.037Z,2.33
2018-10-21T10:25:20.175Z,3.40
2018-10-21T10:27:48.163Z,2.15
2018-10-21T10:30:16.206Z,2.42
2018-10-21T10:32:44.436Z,2.40
2018-10-21T10:35:13.627Z,2.20
2018-10-21T10:37:41.912Z,2.70
2018-10-21T10:40:11.374Z,2.55
2018-10-21T10:42:39.486Z,2.47
2018-10-21T10:45:07.886Z,2.50
2018-10-21T10:47:36.683Z,2.37
2018-10-21T10:50:05.381Z,1.92
2018-10-21T10:52:33.386Z,2.27
2018-10-21T10:55:01.430Z,2.30
2018-10-21T10:57:29.495Z,2.40
2018-10-21T10:59:57.818Z,2.35
2018-10-21T11:02:25.890Z,2.58
2018-10-21T11:04:53.878Z,2.17
2018-10-21T11:07:21.878Z,2.12
2018-10-21T11:09:50.127Z,2.02
2018-10-21T11:12:18.191Z,2.90
2018-10-21T11:14:46.469Z,2.33
2018-10-21T11:17:14.560Z,2.05
2018-10-21T11:19:42.579Z,1.77
2018-10-21T11:22:10.843Z,2.12
2018-10-21T11:24:45.088Z,1.95
2018-10-21T11:27:13.293Z,2.05
2018-10-21T11:29:41.297Z,1.70
2018-10-21T11:32:09.334Z,2.20
2018-10-21T11:34:37.783Z,7.78
2018-10-21T11:37:06.080Z,11.05
2018-10-21T11:39:34.099Z,1.67
2018-10-21T11:42:02.150Z,2.87
2018-10-21T11:44:30.206Z,2.20
2018-10-21T11:46:59.246Z,2.15
2018-10-21T11:49:27.250Z,1.93
2018-10-21T11:51:55.413Z,1.55
2018-10-21T11:54:23.586Z,1.67
2018-10-21T11:56:51.583Z,1.70
2018-10-21T11:59:19.655Z,1.32
2018-10-21T12:01:47.674Z,1.60
2018-10-21T12:04:15.709Z,1.52
2018-10-21T12:06:43.755Z,1.82
2018-10-21T12:09:12.862Z,1.75
2018-10-21T12:11:40.991Z,1.60
2018-10-21T12:14:09.590Z,1.77
2018-10-21T12:16:38.479Z,2.02
2018-10-21T12:19:06.629Z,7.10
2018-10-21T12:21:34.762Z,3.33
2018-10-21T12:24:02.941Z,2.08
2018-10-21T12:26:31.059Z,1.45
2018-10-21T12:28:59.310Z,1.43
2018-10-21T12:31:27.285Z,1.62
2018-10-21T12:33:55.309Z,1.52
2018-10-21T12:36:23.281Z,2.85
2018-10-21T12:38:51.294Z,2.42
2018-10-21T12:41:19.283Z,2.95
2018-10-21T12:43:47.274Z,1.57
2018-10-21T12:46:16.426Z,2.70
2018-10-21T12:48:44.429Z,1.10
2018-10-21T12:51:12.459Z,2.30
2018-10-21T12:53:40.775Z,2.75
2018-10-21T12:56:09.359Z,1.37
2018-10-21T12:58:38.054Z,1.37
2018-10-21T13:01:06.403Z,1.90
2018-10-21T13:03:34.495Z,1.50
2018-10-21T13:06:02.573Z,1.30
2018-10-21T13:08:30.598Z,2.20
2018-10-21T13:10:58.707Z,1.42
2018-10-21T13:13:26.836Z,1.55
2018-10-21T13:15:54.827Z,1.62
2018-10-21T13:18:23.294Z,1.57
2018-10-21T13:20:51.798Z,1.40
2018-10-21T13:23:19.882Z,1.65
2018-10-21T13:25:47.949Z,1.67
2018-10-21T13:28:16.163Z,1.82
2018-10-21T13:30:44.294Z,1.40
2018-10-21T13:33:12.319Z,1.90
2018-10-21T13:35:40.434Z,1.72
2018-10-21T13:38:08.418Z,2.00
2018-10-21T13:40:36.496Z,1.90
2018-10-21T13:43:05.354Z,2.30
2018-10-21T13:45:33.338Z,1.60
2018-10-21T13:48:01.414Z,1.45
2018-10-21T13:50:29.456Z,1.50
2018-10-21T13:52:57.615Z,2.17
2018-10-21T13:55:25.668Z,1.50
2018-10-21T13:57:53.803Z,1.77
2018-10-21T14:00:21.931Z,1.72
2018-10-21T14:02:50.167Z,1.94
2018-10-21T14:05:18.526Z,2.40
2018-10-21T14:07:46.521Z,2.98
2018-10-21T14:10:14.564Z,1.40
2018-10-21T14:12:42.942Z,1.55
2018-10-21T14:15:10.993Z,1.65
2018-10-21T14:17:39.041Z,1.50
2018-10-21T14:20:07.980Z,1.72
2018-10-21T14:22:36.131Z,1.77
2018-10-21T14:25:04.380Z,1.40
2018-10-21T14:27:32.648Z,1.27
2018-10-21T14:30:00.714Z,2.47
2018-10-21T14:32:28.735Z,2.02
2018-10-21T14:34:57.010Z,1.57
2018-10-21T14:37:25.087Z,1.60
2018-10-21T14:39:53.122Z,1.70
2018-10-21T14:42:21.238Z,2.67
2018-10-21T14:44:49.306Z,1.60
2018-10-21T14:47:17.293Z,1.87
2018-10-21T14:49:45.338Z,1.70
2018-10-21T14:52:13.341Z,1.72
2018-10-21T14:54:41.436Z,1.50
2018-10-21T14:57:09.515Z,1.52
2018-10-21T14:59:37.477Z,1.27
2018-10-21T15:02:05.704Z,1.70
2018-10-21T15:04:34.179Z,1.47
2018-10-21T15:07:02.163Z,1.72
2018-10-21T15:09:30.330Z,1.47
2018-10-21T15:11:59.089Z,1.52
2018-10-21T15:14:27.079Z,1.80
2018-10-21T15:16:55.349Z,1.30
2018-10-21T15:19:24.445Z,3.33
2018-10-21T15:21:52.698Z,1.77
2018-10-21T15:24:20.827Z,1.25
2018-10-21T15:26:49.156Z,1.80
2018-10-21T15:29:17.982Z,1.87
2018-10-21T15:31:45.843Z,1.72
2018-10-21T15:34:14.374Z,1.35
2018-10-21T15:36:42.468Z,1.92
2018-10-21T15:39:11.012Z,1.85
2018-10-21T15:41:39.459Z,1.87
2018-10-21T15:44:08.002Z,1.42
2018-10-21T15:46:35.962Z,1.50
2018-10-21T15:49:03.983Z,1.47
2018-10-21T15:51:31.996Z,1.70
2018-10-21T15:54:00.314Z,2.00
2018-10-21T15:56:29.879Z,1.70
2018-10-21T15:58:57.921Z,1.70
2018-10-21T16:01:25.937Z,2.50
2018-10-21T16:03:53.959Z,1.70
2018-10-21T16:06:21.978Z,2.12
2018-10-21T16:08:49.994Z,2.80
2018-10-21T16:11:18.018Z,2.17
2018-10-21T16:13:46.143Z,2.52
2018-10-21T16:16:14.511Z,2.70
2018-10-21T16:18:42.398Z,2.70
2018-10-21T16:21:10.462Z,3.10
2018-10-21T16:23:39.187Z,3.50
2018-10-21T16:26:07.458Z,3.77
2018-10-21T16:28:35.347Z,3.52
2018-10-21T16:31:03.502Z,3.15
2018-10-21T16:33:31.498Z,3.65
2018-10-21T16:35:59.933Z,4.36
2018-10-21T16:38:28.215Z,4.47
2018-10-21T16:40:56.170Z,3.80
2018-10-21T16:43:24.166Z,4.27
2018-10-21T16:45:52.370Z,4.42
2018-10-21T16:48:20.449Z,4.40
2018-10-21T16:50:48.527Z,5.67
2018-10-21T16:53:16.854Z,7.83
2018-10-21T16:55:44.849Z,5.43
2018-10-21T16:58:12.926Z,5.50
2018-10-21T17:00:41.260Z,5.70
2018-10-21T17:03:09.085Z,4.07
2018-10-21T17:05:37.158Z,4.47
2018-10-21T17:08:05.243Z,4.83
2018-10-21T17:10:33.693Z,4.70
2018-10-21T17:13:01.278Z,4.83
2018-10-21T17:15:29.639Z,5.47
2018-10-21T17:17:57.702Z,4.63
2018-10-21T17:20:25.681Z,5.90
2018-10-21T17:22:53.733Z,7.07
2018-10-21T17:25:21.871Z,6.13
2018-10-21T17:27:49.874Z,5.90
2018-10-21T17:30:18.623Z,7.27
2018-10-21T17:32:46.977Z,5.87
2018-10-21T17:35:15.113Z,5.80
2018-10-21T17:37:43.131Z,5.97
2018-10-21T17:40:12.044Z,5.90
2018-10-21T17:42:40.358Z,5.83
2018-10-21T17:45:10.297Z,6.30
2018-10-21T17:47:38.546Z,5.67
2018-10-21T17:50:07.434Z,5.00
2018-10-21T17:52:35.574Z,5.10
2018-10-21T17:55:03.850Z,5.53
2018-10-21T17:57:31.879Z,4.83
2018-10-21T18:00:00.019Z,4.47
2018-10-21T18:02:28.099Z,5.53
2018-10-21T18:04:56.306Z,6.17
2018-10-21T18:07:24.554Z,5.43
2018-10-21T18:09:52.579Z,5.47
2018-10-21T18:12:20.711Z,5.23
2018-10-21T18:14:49.378Z,4.70
2018-10-21T18:17:17.450Z,6.07
2018-10-21T18:19:49.343Z,4.90
2018-10-21T18:22:17.383Z,4.93
2018-10-21T18:24:45.606Z,5.60
2018-10-21T18:27:13.901Z,5.50
2018-10-21T18:29:41.918Z,4.77
2018-10-21T18:32:10.182Z,4.97
2018-10-21T18:34:38.464Z,5.03
2018-10-21T18:37:06.960Z,6.70
2018-10-21T18:39:35.009Z,5.53
2018-10-21T18:42:03.098Z,4.63
2018-10-21T18:44:33.202Z,4.00
2018-10-21T18:47:01.476Z,4.70
2018-10-21T18:49:29.551Z,3.23
2018-10-21T18:51:57.586Z,3.73
2018-10-21T18:54:25.595Z,4.53
2018-10-21T18:56:54.206Z,4.23
2018-10-21T18:59:22.247Z,4.27
2018-10-21T19:01:51.087Z,4.27
2018-10-21T19:04:19.939Z,4.20
2018-10-21T19:06:49.003Z,4.07
2018-10-21T19:09:17.778Z,3.80
2018-10-21T19:11:45.775Z,3.93
2018-10-21T19:14:14.254Z,3.47
2018-10-21T19:16:42.556Z,3.13
2018-10-21T19:19:10.619Z,4.13
2018-10-21T19:21:38.669Z,3.50
2018-10-21T19:24:06.724Z,3.47
2018-10-21T19:26:34.914Z,3.90
2018-10-21T19:29:03.609Z,3.27
2018-10-21T19:31:31.686Z,3.37
2018-10-21T19:33:59.741Z,4.20
2018-10-21T19:36:28.110Z,3.37
2018-10-21T19:38:56.094Z,3.80
2018-10-21T19:41:24.274Z,3.97
2018-10-21T19:43:52.436Z,3.80
2018-10-21T19:46:20.438Z,3.07
2018-10-21T19:48:48.583Z,4.30
2018-10-21T19:51:16.742Z,3.70
2018-10-21T19:53:44.929Z,3.30
2018-10-21T19:56:13.150Z,3.27
2018-10-21T19:58:41.554Z,3.60
2018-10-21T20:01:09.696Z,4.07
2018-10-21T20:03:37.774Z,3.70
2018-10-21T20:06:06.135Z,3.70
2018-10-21T20:08:34.157Z,3.60
2018-10-21T20:11:02.147Z,3.90
2018-10-21T20:13:30.191Z,2.93
2018-10-21T20:15:58.242Z,4.07
2018-10-21T20:18:26.347Z,3.40
2018-10-21T20:20:54.636Z,4.10
2018-10-21T20:23:22.626Z,3.97
2018-10-21T20:25:50.654Z,4.00
2018-10-21T20:28:18.738Z,3.30
2018-10-21T20:30:47.185Z,4.93
2018-10-21T20:33:15.240Z,3.40
2018-10-21T20:35:43.461Z,3.57
2018-10-21T20:38:11.624Z,3.77
2018-10-21T20:40:39.567Z,4.30
2018-10-21T20:43:07.966Z,4.20
2018-10-21T20:45:35.945Z,4.23
2018-10-21T20:50:31.247Z,3.73
2018-10-21T20:52:59.336Z,4.20
2018-10-21T20:55:27.322Z,3.77
2018-10-21T20:57:55.594Z,2.97
2018-10-21T21:00:23.615Z,4.00
2018-10-21T21:02:52.933Z,4.60
2018-10-21T21:05:21.146Z,3.90
2018-10-21T21:07:49.158Z,3.90
2018-10-21T21:10:17.261Z,3.80
2018-10-21T21:12:45.360Z,3.37
2018-10-21T21:15:13.381Z,4.10
2018-10-21T21:17:41.406Z,5.87
2018-10-21T21:20:10.377Z,7.20
2018-10-21T21:22:39.487Z,4.40
2018-10-21T21:25:07.571Z,4.17
2018-10-21T21:27:35.838Z,3.97
2018-10-21T21:30:04.333Z,4.73
2018-10-21T21:32:32.557Z,4.07
2018-10-21T21:35:00.724Z,4.50
2018-10-21T21:37:29.558Z,3.90
2018-10-21T21:39:58.206Z,4.23
2018-10-21T21:42:26.218Z,4.40
2018-10-21T21:44:54.405Z,4.03
2018-10-21T21:47:22.586Z,3.80
2018-10-21T21:49:50.635Z,3.87
2018-10-21T21:52:18.804Z,3.40
2018-10-21T21:54:47.295Z,3.53
2018-10-21T21:57:15.309Z,3.57
2018-10-21T21:59:43.454Z,3.10
2018-10-21T22:02:11.567Z,4.20
2018-10-21T22:04:39.562Z,4.10
2018-10-21T22:07:07.626Z,4.73
2018-10-21T22:09:35.706Z,4.00
2018-10-21T22:12:03.816Z,4.40
2018-10-21T22:14:31.810Z,3.87
2018-10-21T22:17:00.177Z,3.10
2018-10-21T22:19:28.195Z,3.57
2018-10-21T22:21:56.224Z,3.53
2018-10-21T22:24:24.312Z,2.93
2018-10-21T22:26:52.303Z,3.97
2018-10-21T22:29:20.305Z,3.50
2018-10-21T22:31:48.394Z,4.20
2018-10-21T22:34:16.956Z,5.13
2018-10-21T22:36:44.902Z,3.67
2018-10-21T22:39:13.830Z,3.45
2018-10-21T22:41:41.861Z,4.23
2018-10-21T22:44:09.935Z,3.80
2018-10-21T22:46:37.997Z,3.53
2018-10-21T22:49:06.137Z,3.70
2018-10-21T22:51:34.209Z,4.30
2018-10-21T22:54:02.487Z,3.90
2018-10-21T22:56:30.622Z,3.63
2018-10-21T22:58:58.698Z,3.50
2018-10-21T23:01:26.781Z,4.23
2018-10-21T23:03:54.910Z,3.30
2018-10-21T23:06:22.926Z,3.20
2018-10-21T23:08:51.278Z,3.30
2018-10-21T23:11:19.326Z,3.07
2018-10-21T23:13:47.393Z,3.10
2018-10-21T23:16:15.819Z,3.10
2018-10-21T23:18:43.926Z,3.53
2018-10-21T23:21:11.972Z,3.60
2018-10-21T23:23:40.013Z,3.60
2018-10-21T23:26:08.067Z,3.37
2018-10-21T23:28:36.059Z,2.80
2018-10-21T23:31:04.107Z,3.23
2018-10-21T23:33:32.174Z,3.30
2018-10-21T23:36:00.546Z,3.97
2018-10-21T23:38:28.625Z,3.50
2018-10-21T23:40:56.606Z,3.70
2018-10-21T23:43:24.658Z,3.23
2018-10-21T23:45:52.734Z,3.20
2018-10-21T23:48:20.945Z,3.70
2018-10-21T23:50:48.801Z,3.20
2018-10-21T23:53:16.911Z,2.73
2018-10-21T23:55:44.898Z,2.87
2018-10-21T23:58:12.983Z,3.53
